Buckland Airport Buckland US
ICAO: PABL
IATA:
Category: Medium
Scheduled Services:

Elevation: 31 ft
TransAlt. 18000 ft.

Airport Communications:
AWOS 3:135.15
ANCHORAGE APP/DEP:119.2
CTAF:122.9
KOTZEBUE RDO:122.3

PABL Zoom In..

If you have problems with the map follow the link
https://www.worldairports.se/pages/airport.php?
ICAO=PABL

Runways:

(A) RW 11 length 3200 ft width 75 ft
---- / hdg 107

(B) RW 29 length 3200 ft width 75 ft
---- / hdg 287

Location; PABL
Day. 24 / Time. 07.56 Zulu
* Altimeter: 29.50
* Temperature: -05° c. -23°f.
* Wind from: 110° Speed 16 kn with Gusts up to 22 kn.
Dewpoint: -07° c.
Visibility: 10 Statute Miles.
Clouds: Overcast 2000 ft.

PABL 240756Z AUTO 11016G22KT 10SM OVC020 M05/M07 A2950 RMK AO2 SLP991 T10501072 410501122 FZRANO


Wind From 110°
Speed 16 kn.

 
 
jpsmedia.com for Web Design worldairports.se 2019   terms of use